Time;durP1;ratioP1;P1;durP2;ratioP2;P2;SDS_P1;SDS_P2;PMS_P1;PMS_P2;Temp;Humidity;BMP_temperature;BMP_pressure;BME280_temperature;BME280_humidity;BME280_pressure;Samples;Min_cycle;Max_cycle;Signal;HPM_P1;HPM_P2
2022/01/26 00:06:07;;;;;;;;;37.25;30.00;;;;;;;;4989377;28;45537;-78
2022/01/26 00:08:33;;;;;;;;;33.50;28.75;;;;;;;;4990098;28;45819;-80
2022/01/26 00:10:58;;;;;;;;;28.50;28.50;;;;;;;;4989642;28;46259;-79
2022/01/26 00:13:23;;;;;;;;;31.00;27.33;;;;;;;;4990412;28;45551;-78
2022/01/26 00:15:49;;;;;;;;;31.00;28.50;;;;;;;;4989887;28;45439;-78
2022/01/26 00:18:15;;;;;;;;;24.67;23.33;;;;;;;;4990014;28;45328;-78
2022/01/26 00:20:50;;;;;;;;;28.50;27.25;;;;;;;;4988861;28;46636;-78
2022/01/26 00:26:01;;;;;;;;;28.00;26.50;;;;;;;;4989350;28;45383;-79
2022/01/26 00:38:51;;;;;;;;;27.00;25.50;;;;;;;;5009379;28;45753;-78
2022/01/26 00:41:20;;;;;;;;;31.00;25.33;;;;;;;;5009195;28;46336;-78
2022/01/26 00:43:53;;;;;;;;;33.50;30.75;;;;;;;;5008841;28;45502;-78
2022/01/26 00:46:19;;;;;;;;;29.00;26.25;;;;;;;;5001584;28;45483;-77
2022/01/26 00:48:44;;;;;;;;;29.75;25.75;;;;;;;;4988977;28;45487;-78
2022/01/26 00:51:14;;;;;;;;;29.50;26.75;;;;;;;;4989179;28;45578;-78
2022/01/26 00:53:45;;;;;;;;;33.25;28.50;;;;;;;;4989683;28;46055;-77
2022/01/26 00:56:10;;;;;;;;;26.50;22.50;;;;;;;;4989243;28;45423;-78
2022/01/26 00:58:36;;;;;;;;;26.50;24.75;;;;;;;;4989507;28;45604;-77
2022/01/26 01:01:02;;;;;;;;;31.00;28.67;;;;;;;;4989097;28;46123;-78
2022/01/26 01:03:29;;;;;;;;;30.50;25.00;;;;;;;;4989125;28;45664;-78
2022/01/26 01:08:23;;;;;;;;;30.00;27.33;;;;;;;;4989590;28;45764;-78
2022/01/26 01:10:50;;;;;;;;;32.75;27.00;;;;;;;;4970527;28;47330;-78
2022/01/26 01:13:19;;;;;;;;;29.50;28.00;;;;;;;;4989384;28;45403;-78
2022/01/26 01:15:44;;;;;;;;;32.50;29.75;;;;;;;;4971570;28;45377;-79
2022/01/26 01:31:10;;;;;;;;;35.00;31.25;;;;;;;;4960025;28;46128;-78
2022/01/26 01:33:39;;;;;;;;;34.50;32.50;;;;;;;;4988427;28;45340;-79
2022/01/26 01:36:06;;;;;;;;;31.50;27.00;;;;;;;;4988448;28;46025;-79
2022/01/26 01:38:33;;;;;;;;;32.75;31.00;;;;;;;;4989199;28;45482;-79
2022/01/26 01:40:59;;;;;;;;;24.25;21.50;;;;;;;;4990804;28;45984;-79
2022/01/26 01:43:24;;;;;;;;;36.33;30.67;;;;;;;;4992691;28;45570;-78
2022/01/26 01:45:51;;;;;;;;;32.67;30.00;;;;;;;;4991822;28;45514;-78
2022/01/26 01:48:20;;;;;;;;;29.75;27.50;;;;;;;;4992924;28;45587;-78
2022/01/26 01:50:46;;;;;;;;;38.50;34.00;;;;;;;;5006272;28;46090;-77
2022/01/26 01:53:13;;;;;;;;;38.00;34.00;;;;;;;;5002048;28;45566;-78
2022/01/26 01:55:39;;;;;;;;;38.00;30.25;;;;;;;;4991347;28;45580;-77
2022/01/26 01:58:04;;;;;;;;;46.00;37.25;;;;;;;;4991833;28;45651;-78
2022/01/26 02:00:30;;;;;;;;;40.75;34.50;;;;;;;;4992027;28;45479;-79
2022/01/26 02:02:56;;;;;;;;;38.00;32.67;;;;;;;;4991207;28;45341;-79
2022/01/26 02:05:21;;;;;;;;;40.25;36.00;;;;;;;;4991518;28;45425;-78
2022/01/26 02:07:46;;;;;;;;;37.00;33.67;;;;;;;;4991779;28;45368;-78
2022/01/26 02:10:12;;;;;;;;;32.33;26.00;;;;;;;;4991997;28;45803;-77
2022/01/26 02:12:45;;;;;;;;;35.25;32.25;;;;;;;;4973718;28;45553;-78
2022/01/26 02:15:17;;;;;;;;;36.25;32.00;;;;;;;;4992091;28;45428;-78
2022/01/26 02:56:18;;;;;;;;;40.00;33.00;;;;;;;;4991122;28;45498;-77
2022/01/26 03:07:09;;;;;;;;;32.25;28.25;;;;;;;;4990376;28;46183;-77
2022/01/26 03:09:31;;;;;;;;;40.50;35.25;;;;;;;;4990648;28;45571;-77
2022/01/26 03:11:58;;;;;;;;;33.75;26.75;;;;;;;;4990826;28;45415;-78
2022/01/26 03:14:36;;;;;;;;;36.00;34.00;;;;;;;;4991220;28;46377;-78
2022/01/26 03:19:56;;;;;;;;;37.50;31.75;;;;;;;;4962427;28;45581;-78
2022/01/26 03:30:33;;;;;;;;;30.00;27.75;;;;;;;;4995116;28;45636;-78
2022/01/26 03:33:48;;;;;;;;;38.50;29.00;;;;;;;;5011267;28;46463;-78
2022/01/26 03:35:59;;;;;;;;;35.50;33.50;;;;;;;;4993936;28;45527;-78
2022/01/26 03:38:40;;;;;;;;;37.00;32.75;;;;;;;;5003044;28;45475;-78
2022/01/26 03:43:40;;;;;;;;;35.00;29.75;;;;;;;;4998480;28;45634;-80
2022/01/26 03:46:05;;;;;;;;;37.75;33.75;;;;;;;;4999577;28;45292;-79
2022/01/26 03:48:30;;;;;;;;;35.25;28.75;;;;;;;;5000051;28;45345;-78
2022/01/26 03:50:56;;;;;;;;;37.67;35.67;;;;;;;;4996266;28;45534;-79
2022/01/26 03:53:21;;;;;;;;;35.25;31.75;;;;;;;;4990006;28;45520;-78
2022/01/26 03:55:46;;;;;;;;;31.67;28.33;;;;;;;;4989169;28;45836;-78
2022/01/26 03:58:11;;;;;;;;;34.67;32.00;;;;;;;;5004680;28;45057;-78
2022/01/26 04:00:37;;;;;;;;;31.00;26.50;;;;;;;;5006507;28;45495;-79
2022/01/26 04:03:02;;;;;;;;;37.00;31.67;;;;;;;;5007167;28;45273;-79
2022/01/26 04:05:28;;;;;;;;;36.75;33.75;;;;;;;;4994635;28;45575;-78
2022/01/26 04:07:58;;;;;;;;;31.50;25.75;;;;;;;;4988708;28;46077;-77
2022/01/26 04:12:55;;;;;;;;;30.75;26.00;;;;;;;;4990076;28;45685;-79
2022/01/26 04:15:28;;;;;;;;;30.00;28.00;;;;;;;;4990166;28;45468;-78
2022/01/26 04:17:54;;;;;;;;;37.50;35.25;;;;;;;;4990077;28;45466;-78
2022/01/26 04:20:22;;;;;;;;;34.00;32.25;;;;;;;;4972396;28;45479;-78
2022/01/26 04:23:04;;;;;;;;;34.75;31.00;;;;;;;;4989188;28;45444;-78
2022/01/26 04:25:29;;;;;;;;;30.50;27.00;;;;;;;;4990228;28;46531;-78
2022/01/26 04:27:57;;;;;;;;;28.67;27.00;;;;;;;;4971728;28;45662;-78
2022/01/26 04:30:22;;;;;;;;;36.75;30.00;;;;;;;;4990573;28;45702;-78
2022/01/26 04:32:47;;;;;;;;;35.00;31.33;;;;;;;;5009416;28;45752;-77
2022/01/26 04:35:13;;;;;;;;;34.67;31.67;;;;;;;;5009511;28;45524;-77
2022/01/26 04:40:12;;;;;;;;;34.75;31.25;;;;;;;;5009630;28;45756;-78
2022/01/26 04:42:57;;;;;;;;;42.25;35.50;;;;;;;;5003070;28;45622;-78
2022/01/26 04:45:23;;;;;;;;;36.00;32.00;;;;;;;;4971812;28;47178;-78
2022/01/26 04:47:48;;;;;;;;;29.33;28.67;;;;;;;;4989268;28;45552;-78
2022/01/26 04:50:13;;;;;;;;;34.33;31.00;;;;;;;;4971996;28;46688;-78
2022/01/26 04:52:39;;;;;;;;;35.00;31.33;;;;;;;;4989028;28;45483;-78
2022/01/26 04:55:04;;;;;;;;;30.50;28.00;;;;;;;;4989596;28;46352;-79
2022/01/26 04:57:30;;;;;;;;;29.00;27.50;;;;;;;;4989451;28;45753;-78
2022/01/26 04:59:55;;;;;;;;;30.67;27.00;;;;;;;;4989190;28;45734;-78
2022/01/26 05:02:20;;;;;;;;;31.33;28.00;;;;;;;;4989674;28;45500;-78
2022/01/26 05:04:45;;;;;;;;;28.00;24.33;;;;;;;;4971124;28;48224;-78
2022/01/26 05:07:10;;;;;;;;;40.67;36.00;;;;;;;;4988909;28;45521;-78
2022/01/26 05:09:36;;;;;;;;;36.33;34.33;;;;;;;;4989481;28;45632;-79
2022/01/26 05:12:02;;;;;;;;;32.25;30.25;;;;;;;;4989155;28;45535;-79
2022/01/26 05:14:28;;;;;;;;;41.50;34.00;;;;;;;;4971505;28;48331;-79
2022/01/26 05:16:53;;;;;;;;;35.25;31.50;;;;;;;;4992538;28;45655;-79
2022/01/26 05:19:18;;;;;;;;;29.33;24.00;;;;;;;;4975136;28;45568;-78
2022/01/26 05:21:43;;;;;;;;;30.33;28.67;;;;;;;;4991415;28;45808;-78
2022/01/26 05:24:10;;;;;;;;;30.00;28.33;;;;;;;;4996659;28;45465;-79
2022/01/26 05:26:36;;;;;;;;;40.25;35.25;;;;;;;;4992306;28;45466;-78
2022/01/26 05:29:01;;;;;;;;;40.50;37.00;;;;;;;;4992971;28;45445;-78
2022/01/26 05:31:26;;;;;;;;;36.67;34.33;;;;;;;;5007696;28;45502;-78
2022/01/26 05:33:53;;;;;;;;;40.33;36.33;;;;;;;;5016913;28;45366;-79
2022/01/26 05:36:19;;;;;;;;;42.75;37.25;;;;;;;;5019739;28;45483;-79
2022/01/26 05:38:44;;;;;;;;;40.00;36.67;;;;;;;;5008741;28;45745;-78
2022/01/26 05:41:09;;;;;;;;;36.33;29.67;;;;;;;;4999279;28;45059;-78
2022/01/26 05:43:35;;;;;;;;;38.75;35.50;;;;;;;;4994288;28;46385;-79
2022/01/26 05:46:08;;;;;;;;;43.00;38.00;;;;;;;;5001690;28;44958;-78
2022/01/26 05:48:35;;;;;;;;;38.25;36.25;;;;;;;;5014022;28;45402;-78
2022/01/26 05:51:06;;;;;;;;;35.75;33.50;;;;;;;;5028250;28;45128;-78
2022/01/26 05:53:32;;;;;;;;;43.50;39.50;;;;;;;;5013993;28;45581;-77
2022/01/26 05:55:58;;;;;;;;;55.25;41.50;;;;;;;;5006976;28;45364;-79
2022/01/26 05:58:23;;;;;;;;;47.00;40.25;;;;;;;;5004193;28;45098;-78
2022/01/26 06:00:49;;;;;;;;;42.00;39.00;;;;;;;;5001627;28;45094;-79
2022/01/26 06:03:14;;;;;;;;;33.00;28.67;;;;;;;;5004316;28;45662;-78
2022/01/26 06:05:39;;;;;;;;;40.67;33.67;;;;;;;;5004410;28;45315;-78
2022/01/26 06:08:05;;;;;;;;;41.00;39.00;;;;;;;;4986163;28;45534;-78
2022/01/26 06:10:30;;;;;;;;;57.75;44.00;;;;;;;;5010106;28;45000;-79
2022/01/26 06:12:56;;;;;;;;;44.33;40.00;;;;;;;;5008378;28;45945;-79
2022/01/26 06:15:21;;;;;;;;;47.00;40.00;;;;;;;;5009184;28;45096;-78
2022/01/26 06:17:47;;;;;;;;;46.67;42.00;;;;;;;;5009623;28;45101;-79
2022/01/26 06:20:12;;;;;;;;;44.25;36.25;;;;;;;;5008780;28;45099;-79
2022/01/26 06:22:37;;;;;;;;;42.00;40.33;;;;;;;;5005794;28;46418;-79
2022/01/26 06:25:06;;;;;;;;;48.25;40.25;;;;;;;;5005200;28;45227;-77
2022/01/26 06:27:31;;;;;;;;;49.00;40.50;;;;;;;;5005262;28;45270;-78
2022/01/26 06:29:56;;;;;;;;;36.50;34.50;;;;;;;;4999409;28;45590;-79
2022/01/26 06:32:22;;;;;;;;;42.00;39.00;;;;;;;;5015914;28;45775;-78
2022/01/26 06:34:47;;;;;;;;;38.25;34.50;;;;;;;;5009205;28;45211;-78
2022/01/26 06:37:14;;;;;;;;;43.00;39.75;;;;;;;;5005638;28;45401;-78
2022/01/26 06:39:39;;;;;;;;;45.25;41.50;;;;;;;;5001278;28;45341;-80
2022/01/26 06:42:11;;;;;;;;;43.33;38.67;;;;;;;;4991629;28;46337;-78
2022/01/26 06:44:47;;;;;;;;;44.25;40.50;;;;;;;;5000473;28;45359;-78
2022/01/26 06:49:37;;;;;;;;;43.33;37.33;;;;;;;;5009257;28;45267;-79
2022/01/26 06:52:03;;;;;;;;;51.33;44.00;;;;;;;;4989186;28;47575;-79
2022/01/26 06:54:28;;;;;;;;;46.25;39.50;;;;;;;;5010201;28;45338;-79
2022/01/26 06:56:53;;;;;;;;;49.00;36.67;;;;;;;;5009210;28;45144;-78
2022/01/26 06:59:19;;;;;;;;;50.00;42.00;;;;;;;;5002228;28;45333;-79
2022/01/26 07:01:44;;;;;;;;;61.75;46.50;;;;;;;;4989664;28;46496;-78
2022/01/26 07:04:09;;;;;;;;;52.00;45.67;;;;;;;;4991419;28;45568;-78
2022/01/26 07:06:35;;;;;;;;;69.67;55.67;;;;;;;;4990109;28;45979;-79
2022/01/26 07:09:00;;;;;;;;;73.00;58.00;;;;;;;;4990743;28;45506;-78
2022/01/26 07:11:25;;;;;;;;;45.00;34.25;;;;;;;;4991090;28;46273;-79
2022/01/26 07:13:57;;;;;;;;;62.67;50.67;;;;;;;;4989907;28;45644;-78
2022/01/26 07:21:50;;;;;;;;;63.00;50.25;;;;;;;;5007883;28;45408;-77
2022/01/26 07:24:15;;;;;;;;;54.00;47.00;;;;;;;;5009203;28;45158;-78
2022/01/26 07:26:42;;;;;;;;;55.33;44.67;;;;;;;;5009538;28;45272;-79
2022/01/26 07:29:11;;;;;;;;;52.75;44.25;;;;;;;;5008358;28;45116;-78
2022/01/26 07:31:42;;;;;;;;;58.75;44.75;;;;;;;;5020385;28;46047;-78
2022/01/26 07:34:07;;;;;;;;;44.50;39.75;;;;;;;;5021943;28;45472;-79
2022/01/26 07:36:32;;;;;;;;;54.33;43.00;;;;;;;;5008912;28;45188;-79
2022/01/26 07:39:06;;;;;;;;;54.67;46.33;;;;;;;;5005161;28;45048;-84
2022/01/26 07:41:31;;;;;;;;;57.75;48.25;;;;;;;;4991465;28;46624;-77
2022/01/26 07:43:56;;;;;;;;;55.33;45.67;;;;;;;;4997921;28;45736;-78
2022/01/26 07:46:22;;;;;;;;;60.67;47.67;;;;;;;;4999262;28;45419;-80
2022/01/26 07:48:48;;;;;;;;;55.50;46.25;;;;;;;;4996770;28;45203;-79
2022/01/26 07:51:13;;;;;;;;;58.33;47.00;;;;;;;;4999045;28;45672;-80
2022/01/26 07:53:38;;;;;;;;;61.33;48.67;;;;;;;;4986064;28;45536;-79
2022/01/26 07:56:04;;;;;;;;;54.25;43.00;;;;;;;;4989866;28;45495;-79
2022/01/26 07:58:29;;;;;;;;;60.75;47.25;;;;;;;;4977669;28;45536;-78
2022/01/26 08:00:54;;;;;;;;;61.33;47.00;;;;;;;;4978066;28;46232;-77
2022/01/26 08:03:20;;;;;;;;;61.00;48.00;;;;;;;;4990339;28;45536;-84
2022/01/26 08:05:46;;;;;;;;;57.00;45.25;;;;;;;;4989675;28;45648;-83
2022/01/26 08:08:11;;;;;;;;;55.67;45.00;;;;;;;;4989868;28;45488;-82
2022/01/26 08:10:36;;;;;;;;;58.67;47.67;;;;;;;;4990329;28;46367;-82
2022/01/26 08:13:03;;;;;;;;;58.50;46.00;;;;;;;;4989380;28;45450;-85
2022/01/26 08:15:28;;;;;;;;;64.00;49.00;;;;;;;;4990411;28;45423;-83
2022/01/26 08:17:54;;;;;;;;;59.67;50.00;;;;;;;;4989216;28;45968;-90
2022/01/26 08:20:21;;;;;;;;;57.50;47.50;;;;;;;;4991409;28;46173;-82
2022/01/26 08:22:47;;;;;;;;;62.00;49.75;;;;;;;;4988981;28;45663;-82
2022/01/26 08:25:12;;;;;;;;;64.33;47.33;;;;;;;;4990367;28;45702;-83
2022/01/26 08:27:44;;;;;;;;;66.67;52.67;;;;;;;;4988469;28;45472;-82
2022/01/26 08:30:14;;;;;;;;;59.75;49.00;;;;;;;;4991762;28;45436;-95
2022/01/26 08:32:39;;;;;;;;;62.00;46.75;;;;;;;;5014217;28;45309;-93
2022/01/26 08:35:05;;;;;;;;;62.67;47.33;;;;;;;;5000971;28;45340;-82
2022/01/26 08:37:30;;;;;;;;;63.25;49.75;;;;;;;;4989343;28;45863;-80
2022/01/26 08:39:55;;;;;;;;;61.33;50.00;;;;;;;;4971050;28;47153;-80
2022/01/26 08:42:21;;;;;;;;;64.33;50.67;;;;;;;;4988789;28;45512;-80
2022/01/26 08:44:46;;;;;;;;;65.75;51.50;;;;;;;;4990012;28;45490;-83
2022/01/26 08:47:11;;;;;;;;;64.00;48.67;;;;;;;;4971634;28;45715;-79
2022/01/26 08:49:42;;;;;;;;;60.67;50.67;;;;;;;;4989630;28;45466;-84
2022/01/26 08:52:08;;;;;;;;;69.00;51.25;;;;;;;;4971026;28;45308;-83
2022/01/26 08:54:33;;;;;;;;;61.00;51.00;;;;;;;;4988970;28;45535;-77
2022/01/26 08:56:58;;;;;;;;;59.00;47.67;;;;;;;;4989823;28;45587;-78
2022/01/26 08:59:24;;;;;;;;;65.33;49.33;;;;;;;;4983630;28;45650;-78
2022/01/26 09:01:49;;;;;;;;;62.25;49.50;;;;;;;;4973585;28;46618;-78
2022/01/26 09:04:15;;;;;;;;;61.00;50.33;;;;;;;;4977474;28;45697;-78
2022/01/26 09:06:51;;;;;;;;;66.75;51.50;;;;;;;;4982319;28;45588;-78
2022/01/26 09:09:21;;;;;;;;;63.25;49.75;;;;;;;;4980419;28;45641;-79
2022/01/26 09:11:47;;;;;;;;;62.00;49.25;;;;;;;;4981045;28;46718;-78
2022/01/26 09:14:17;;;;;;;;;70.50;52.25;;;;;;;;4970382;28;45660;-79
2022/01/26 09:16:51;;;;;;;;;55.75;46.50;;;;;;;;5000424;28;45418;-77
2022/01/26 09:19:34;;;;;;;;;62.25;49.75;;;;;;;;4998390;28;46019;-79
2022/01/26 09:21:59;;;;;;;;;64.25;52.25;;;;;;;;5001905;28;45504;-79
2022/01/26 09:24:30;;;;;;;;;58.33;45.33;;;;;;;;5003439;28;45432;-79
2022/01/26 09:26:56;;;;;;;;;60.75;49.00;;;;;;;;4996599;28;45986;-78
2022/01/26 09:29:21;;;;;;;;;70.00;55.75;;;;;;;;4993075;28;45789;-79
2022/01/26 09:31:47;;;;;;;;;61.33;50.33;;;;;;;;4997538;28;45368;-79
2022/01/26 09:34:17;;;;;;;;;67.75;52.75;;;;;;;;4996580;28;45139;-77
2022/01/26 09:36:42;;;;;;;;;67.25;53.00;;;;;;;;4990162;28;45224;-78
2022/01/26 09:39:08;;;;;;;;;64.00;49.25;;;;;;;;4998300;28;45348;-79
2022/01/26 09:41:34;;;;;;;;;70.75;52.75;;;;;;;;4994289;28;45767;-79
2022/01/26 09:44:01;;;;;;;;;64.75;50.50;;;;;;;;5003259;28;45469;-79
2022/01/26 09:46:26;;;;;;;;;62.50;49.75;;;;;;;;5002255;28;45846;-78
2022/01/26 09:48:51;;;;;;;;;68.00;55.00;;;;;;;;4996575;28;45395;-77
2022/01/26 09:51:19;;;;;;;;;68.33;51.33;;;;;;;;4989790;28;45423;-79
2022/01/26 09:53:44;;;;;;;;;63.25;51.25;;;;;;;;4983191;28;45642;-79
2022/01/26 09:56:10;;;;;;;;;61.67;49.67;;;;;;;;4993453;28;45394;-78
2022/01/26 09:58:36;;;;;;;;;66.25;54.00;;;;;;;;4998313;28;46323;-78
2022/01/26 10:01:03;;;;;;;;;67.00;50.50;;;;;;;;4994111;28;45574;-78
2022/01/26 10:03:32;;;;;;;;;64.25;51.00;;;;;;;;5002692;28;45168;-78
2022/01/26 10:05:57;;;;;;;;;69.50;54.50;;;;;;;;4991870;28;45315;-78
2022/01/26 10:08:50;;;;;;;;;69.33;52.00;;;;;;;;4997439;28;46374;-79
2022/01/26 10:18:59;;;;;;;;;67.00;51.50;;;;;;;;4992091;28;46173;-78
2022/01/26 10:21:24;;;;;;;;;63.00;49.67;;;;;;;;4993077;28;45546;-78
2022/01/26 10:23:52;;;;;;;;;61.50;50.00;;;;;;;;4989561;28;45300;-78
2022/01/26 10:26:19;;;;;;;;;64.00;50.00;;;;;;;;5005417;28;45345;-76
2022/01/26 10:28:56;;;;;;;;;67.50;54.50;;;;;;;;4995749;28;47109;-77
2022/01/26 10:31:23;;;;;;;;;67.25;54.00;;;;;;;;5005463;28;45485;-78
2022/01/26 10:33:57;;;;;;;;;67.75;53.75;;;;;;;;5029326;28;45170;-78
2022/01/26 10:36:23;;;;;;;;;73.00;58.75;;;;;;;;5007166;28;45335;-80
2022/01/26 10:38:58;;;;;;;;;71.75;55.50;;;;;;;;5001650;28;45773;-78
2022/01/26 10:41:23;;;;;;;;;80.50;61.25;;;;;;;;5003327;28;45306;-78
2022/01/26 10:43:50;;;;;;;;;74.33;55.00;;;;;;;;4992642;28;45253;-80
2022/01/26 10:46:29;;;;;;;;;64.75;52.00;;;;;;;;5005653;28;45095;-76
2022/01/26 10:54:34;;;;;;;;;67.50;53.00;;;;;;;;5006124;28;45305;-79
2022/01/26 10:57:00;;;;;;;;;73.50;56.50;;;;;;;;5003414;28;45026;-78
2022/01/26 10:59:25;;;;;;;;;73.00;56.25;;;;;;;;5010090;28;45511;-78
2022/01/26 11:01:50;;;;;;;;;66.33;53.33;;;;;;;;5008765;28;45128;-78
2022/01/26 11:04:16;;;;;;;;;66.33;50.33;;;;;;;;4994105;28;45258;-78
2022/01/26 11:06:43;;;;;;;;;65.00;53.33;;;;;;;;4988283;28;45651;-78
2022/01/26 11:09:12;;;;;;;;;69.75;53.50;;;;;;;;4988929;28;45583;-79
2022/01/26 11:11:41;;;;;;;;;64.75;50.75;;;;;;;;4989513;28;45696;-78
2022/01/26 11:14:13;;;;;;;;;73.25;58.75;;;;;;;;4990423;28;45651;-78
2022/01/26 11:16:47;;;;;;;;;71.50;55.00;;;;;;;;4989833;28;45388;-79
2022/01/26 11:19:14;;;;;;;;;68.25;53.25;;;;;;;;4990362;28;46367;-78
2022/01/26 11:21:40;;;;;;;;;68.00;55.00;;;;;;;;4971703;28;45356;-77
2022/01/26 11:24:10;;;;;;;;;68.50;55.50;;;;;;;;4989680;28;45566;-78
2022/01/26 11:26:38;;;;;;;;;68.25;55.25;;;;;;;;4990131;28;45562;-78
2022/01/26 11:29:12;;;;;;;;;71.00;56.00;;;;;;;;4991417;28;45770;-80
2022/01/26 11:31:38;;;;;;;;;68.75;54.75;;;;;;;;5004013;28;45489;-79
2022/01/26 11:34:04;;;;;;;;;70.25;55.00;;;;;;;;4995196;28;45530;-80
2022/01/26 11:36:31;;;;;;;;;73.75;57.00;;;;;;;;4990222;28;45507;-79
2022/01/26 11:47:21;;;;;;;;;72.25;56.50;;;;;;;;4984020;28;45460;-79
2022/01/26 11:49:50;;;;;;;;;66.00;51.75;;;;;;;;4990688;28;45519;-78
2022/01/26 11:52:23;;;;;;;;;73.50;55.25;;;;;;;;4991215;28;45447;-79
2022/01/26 11:54:52;;;;;;;;;71.75;56.00;;;;;;;;4989898;28;45574;-79
2022/01/26 11:57:19;;;;;;;;;84.75;64.75;;;;;;;;4990800;28;45388;-79
2022/01/26 11:59:56;;;;;;;;;77.25;57.00;;;;;;;;4989144;28;45340;-79
2022/01/26 12:03:10;;;;;;;;;72.75;56.00;;;;;;;;4989938;28;45571;-78
2022/01/26 12:05:11;;;;;;;;;73.00;56.25;;;;;;;;4986591;28;45994;-78
2022/01/26 12:08:05;;;;;;;;;74.25;59.25;;;;;;;;5003555;28;44990;-79
2022/01/26 12:10:32;;;;;;;;;70.25;55.50;;;;;;;;4957011;28;46710;-78
2022/01/26 12:12:57;;;;;;;;;70.00;55.50;;;;;;;;4974348;28;45309;-79
2022/01/26 12:15:27;;;;;;;;;72.67;56.33;;;;;;;;4990405;28;45491;-79
2022/01/26 12:32:14;;;;;;;;;80.00;59.00;;;;;;;;5000425;28;45389;-78
2022/01/26 12:35:09;;;;;;;;;74.75;57.00;;;;;;;;4988853;28;45909;-78
2022/01/26 12:43:05;;;;;;;;;74.75;59.50;;;;;;;;4987292;28;45514;-79
2022/01/26 12:45:25;;;;;;;;;76.25;57.25;;;;;;;;4983998;28;45964;-78
2022/01/26 12:47:52;;;;;;;;;73.75;58.25;;;;;;;;4989569;28;45479;-79
2022/01/26 12:50:18;;;;;;;;;72.50;56.25;;;;;;;;4989714;28;45654;-77
2022/01/26 12:52:46;;;;;;;;;69.25;51.75;;;;;;;;4988795;28;45428;-79
2022/01/26 12:55:18;;;;;;;;;67.75;53.50;;;;;;;;4989086;28;45949;-78
2022/01/26 12:57:44;;;;;;;;;74.50;56.75;;;;;;;;4967401;28;45431;-78
2022/01/26 13:00:09;;;;;;;;;72.00;57.25;;;;;;;;4989549;28;45490;-79
2022/01/26 13:02:35;;;;;;;;;73.00;57.00;;;;;;;;4988686;28;46594;-79
2022/01/26 13:05:04;;;;;;;;;68.67;53.00;;;;;;;;4993009;28;45333;-77
2022/01/26 13:07:29;;;;;;;;;72.00;56.25;;;;;;;;4984331;28;45462;-78
2022/01/26 13:09:54;;;;;;;;;75.67;57.33;;;;;;;;4986625;28;45351;-77
2022/01/26 13:12:30;;;;;;;;;70.33;53.00;;;;;;;;5004016;28;46058;-78
2022/01/26 13:15:11;;;;;;;;;72.25;54.00;;;;;;;;4996928;28;45744;-79
2022/01/26 13:17:42;;;;;;;;;69.50;54.75;;;;;;;;4983572;28;45610;-78
2022/01/26 13:20:28;;;;;;;;;67.50;54.00;;;;;;;;4996230;28;45462;-79
2022/01/26 13:36:43;;;;;;;;;68.00;54.25;;;;;;;;4989734;28;45461;-78
2022/01/26 13:47:03;;;;;;;;;70.00;55.75;;;;;;;;5009546;28;45364;-78
2022/01/26 13:59:54;;;;;;;;;75.25;59.50;;;;;;;;4996281;28;45300;-79
2022/01/26 14:02:19;;;;;;;;;72.00;55.75;;;;;;;;5009343;28;45174;-78
2022/01/26 14:04:45;;;;;;;;;70.33;55.33;;;;;;;;5002420;28;46220;-78
2022/01/26 14:07:10;;;;;;;;;69.67;57.33;;;;;;;;4995139;28;45637;-78
2022/01/26 14:09:36;;;;;;;;;74.33;59.00;;;;;;;;4993770;28;45462;-79
2022/01/26 14:12:02;;;;;;;;;72.50;57.25;;;;;;;;4998629;28;45375;-78
2022/01/26 14:14:34;;;;;;;;;76.75;58.25;;;;;;;;4999816;28;45243;-79
2022/01/26 14:17:01;;;;;;;;;76.00;59.25;;;;;;;;4985248;28;45516;-79
2022/01/26 14:19:36;;;;;;;;;79.00;59.25;;;;;;;;4986606;28;45728;-79
2022/01/26 14:25:05;;;;;;;;;74.50;57.50;;;;;;;;4997780;28;45516;-77
2022/01/26 14:27:44;;;;;;;;;74.25;57.25;;;;;;;;5009298;28;45105;-79
2022/01/26 14:54:26;;;;;;;;;78.00;60.33;;;;;;;;4997585;28;45683;-78
2022/01/26 15:53:06;;;;;;;;;52.00;43.50;;;;;;;;5006829;28;45516;-78
2022/01/26 15:58:19;;;;;;;;;63.00;50.50;;;;;;;;4993581;28;45342;-79
2022/01/26 16:17:28;;;;;;;;;45.75;37.75;;;;;;;;4950706;28;45428;-77
2022/01/26 16:38:50;;;;;;;;;75.75;59.50;;;;;;;;5002612;28;45447;-79
2022/01/26 17:47:48;;;;;;;;;72.75;58.25;;;;;;;;4984406;28;45510;-78
2022/01/26 18:04:02;;;;;;;;;76.25;57.75;;;;;;;;4992767;28;44828;-80
2022/01/26 18:17:29;;;;;;;;;81.50;61.00;;;;;;;;4991224;28;45550;-79
2022/01/26 18:33:18;;;;;;;;;81.00;63.50;;;;;;;;5003802;28;45929;-79
2022/01/26 18:49:19;;;;;;;;;77.25;58.75;;;;;;;;4997433;28;45376;-78
2022/01/26 18:51:48;;;;;;;;;74.75;58.75;;;;;;;;4992603;28;45563;-77
2022/01/26 18:54:15;;;;;;;;;76.75;58.50;;;;;;;;4991179;28;46386;-76
2022/01/26 18:56:41;;;;;;;;;78.00;59.50;;;;;;;;4978823;28;45723;-78
2022/01/26 18:59:07;;;;;;;;;77.25;60.50;;;;;;;;4994752;28;45478;-78
2022/01/26 19:01:33;;;;;;;;;66.50;53.50;;;;;;;;4981732;28;45699;-78
2022/01/26 19:03:58;;;;;;;;;71.25;55.00;;;;;;;;4994705;28;45676;-78
2022/01/26 19:06:23;;;;;;;;;78.00;60.00;;;;;;;;4997512;28;45497;-78
2022/01/26 19:08:48;;;;;;;;;77.00;59.33;;;;;;;;4992353;28;45817;-78
2022/01/26 19:11:15;;;;;;;;;79.33;62.33;;;;;;;;4994905;28;45409;-77
2022/01/26 19:13:43;;;;;;;;;75.00;60.75;;;;;;;;4990179;28;46251;-77
2022/01/26 19:16:27;;;;;;;;;80.00;60.50;;;;;;;;4990810;28;45737;-77
2022/01/26 19:19:07;;;;;;;;;77.50;58.75;;;;;;;;4989987;28;45596;-78
2022/01/26 19:26:47;;;;;;;;;82.00;63.25;;;;;;;;4989593;28;45605;-80
2022/01/26 19:29:45;;;;;;;;;79.50;59.75;;;;;;;;4990997;28;45652;-79
2022/01/26 19:32:36;;;;;;;;;85.25;61.75;;;;;;;;4996929;28;45497;-79
2022/01/26 19:51:05;;;;;;;;;75.25;60.00;;;;;;;;5003791;28;45558;-78
2022/01/26 19:53:30;;;;;;;;;77.00;57.00;;;;;;;;4996769;28;45446;-78
2022/01/26 19:55:55;;;;;;;;;76.00;60.00;;;;;;;;4979970;28;47365;-79
2022/01/26 19:58:20;;;;;;;;;72.33;57.33;;;;;;;;4999521;28;45376;-78
2022/01/26 20:00:46;;;;;;;;;73.33;56.67;;;;;;;;4981944;28;45142;-80
2022/01/26 20:03:13;;;;;;;;;70.50;55.25;;;;;;;;4999562;28;45423;-78
2022/01/26 20:05:38;;;;;;;;;71.25;54.75;;;;;;;;4980027;28;47459;-78
2022/01/26 20:08:14;;;;;;;;;72.50;56.50;;;;;;;;4979502;28;45477;-79
2022/01/26 20:10:45;;;;;;;;;73.25;54.75;;;;;;;;4976122;28;45314;-80
2022/01/26 20:13:21;;;;;;;;;68.25;54.75;;;;;;;;4995459;28;45602;-79
2022/01/26 20:15:46;;;;;;;;;76.50;58.00;;;;;;;;4974077;28;47596;-78
2022/01/26 20:18:12;;;;;;;;;72.75;55.25;;;;;;;;4993834;28;45518;-79
2022/01/26 20:20:37;;;;;;;;;72.33;56.67;;;;;;;;4989718;28;45404;-79
2022/01/26 20:23:02;;;;;;;;;72.00;57.00;;;;;;;;4989386;28;45408;-79
2022/01/26 20:25:27;;;;;;;;;67.67;55.00;;;;;;;;4988875;28;46368;-78
2022/01/26 20:27:53;;;;;;;;;70.00;56.67;;;;;;;;4992584;28;45419;-79
2022/01/26 20:30:21;;;;;;;;;72.33;56.67;;;;;;;;4990773;28;45706;-79
2022/01/26 20:32:48;;;;;;;;;70.50;53.25;;;;;;;;5017042;28;45538;-77
2022/01/26 20:35:16;;;;;;;;;73.75;56.50;;;;;;;;5006723;28;45680;-79
2022/01/26 20:37:42;;;;;;;;;72.25;52.00;;;;;;;;5001597;28;45844;-79
2022/01/26 20:40:07;;;;;;;;;69.50;56.00;;;;;;;;5003674;28;45422;-78
2022/01/26 20:42:33;;;;;;;;;71.75;55.25;;;;;;;;5000524;28;45451;-79
2022/01/26 20:44:58;;;;;;;;;71.67;55.33;;;;;;;;5003579;28;45755;-79
2022/01/26 20:47:23;;;;;;;;;66.00;52.33;;;;;;;;5005558;28;45122;-79
2022/01/26 20:49:48;;;;;;;;;73.67;55.00;;;;;;;;5002366;28;45382;-78
2022/01/26 20:52:14;;;;;;;;;74.67;55.33;;;;;;;;4992784;28;45431;-78
2022/01/26 20:54:39;;;;;;;;;69.33;53.67;;;;;;;;4990905;28;45549;-79
2022/01/26 20:57:05;;;;;;;;;63.25;50.75;;;;;;;;4993948;28;45515;-78
2022/01/26 20:59:30;;;;;;;;;66.75;53.00;;;;;;;;4991315;28;45713;-79
2022/01/26 21:01:56;;;;;;;;;64.33;53.67;;;;;;;;4993462;28;45432;-79
2022/01/26 21:04:23;;;;;;;;;59.00;49.00;;;;;;;;4989871;28;45381;-78
2022/01/26 21:06:48;;;;;;;;;66.75;52.75;;;;;;;;4991086;28;45456;-78
2022/01/26 21:09:14;;;;;;;;;69.33;53.33;;;;;;;;4990444;28;45733;-78
2022/01/26 21:11:40;;;;;;;;;65.25;53.00;;;;;;;;4999093;28;45503;-78
2022/01/26 21:14:05;;;;;;;;;67.67;52.33;;;;;;;;4994337;28;46177;-79
2022/01/26 21:16:30;;;;;;;;;70.67;56.00;;;;;;;;5002426;28;45574;-79
2022/01/26 21:18:57;;;;;;;;;65.50;52.50;;;;;;;;4993699;28;45575;-78
2022/01/26 21:21:23;;;;;;;;;68.50;53.00;;;;;;;;4991927;28;46093;-77
2022/01/26 21:23:49;;;;;;;;;70.00;53.25;;;;;;;;5004732;28;46414;-80
2022/01/26 21:26:14;;;;;;;;;67.67;52.00;;;;;;;;5008283;28;45368;-79
2022/01/26 21:28:39;;;;;;;;;66.67;52.00;;;;;;;;5007683;28;45063;-80
2022/01/26 21:31:04;;;;;;;;;75.33;56.67;;;;;;;;5007425;28;45170;-79
2022/01/26 21:33:33;;;;;;;;;71.67;56.00;;;;;;;;5020068;28;45850;-78
2022/01/26 21:35:58;;;;;;;;;81.00;58.25;;;;;;;;5026853;28;45306;-79
2022/01/26 21:38:24;;;;;;;;;72.00;55.33;;;;;;;;5007060;28;45244;-78
2022/01/26 21:40:49;;;;;;;;;73.33;57.33;;;;;;;;5007768;28;45264;-80